createdAt,value
2023-03-20T08:00:09.307Z,100645.09
2023-03-20T08:31:41.588Z,100695.75
2023-03-20T08:43:41.987Z,100716.69
2023-03-20T08:47:35.435Z,100730.91
2023-03-20T08:51:07.303Z,100738.06
2023-03-20T08:54:56.248Z,100760.59
2023-03-20T08:58:06.446Z,100786.16
2023-03-20T09:01:41.813Z,100805.59
2023-03-20T09:05:35.071Z,100850.13
2023-03-20T09:08:48.504Z,100864.66
2023-03-20T09:12:02.766Z,100875.72
2023-03-20T09:15:31.342Z,100879.16
2023-03-20T09:18:44.170Z,100877.97
2023-03-20T09:22:12.961Z,100877.59
2023-03-20T09:33:24.790Z,100878.06
2023-03-20T09:37:40.204Z,100874.28
2023-03-20T09:41:33.945Z,100871.13
2023-03-20T09:49:20.418Z,100880.81
2023-03-20T09:52:48.393Z,100875.38
2023-03-20T09:56:45.530Z,100880.50
2023-03-20T10:00:01.553Z,100882.78
2023-03-20T10:03:16.022Z,100887.47
2023-03-20T10:06:34.640Z,100886.31
2023-03-20T10:09:57.845Z,100885.28
2023-03-20T10:13:44.291Z,100881.88
2023-03-20T10:17:07.199Z,100876.00
2023-03-20T10:24:12.032Z,100876.81
2023-03-20T10:27:35.309Z,100867.84
2023-03-20T10:31:05.303Z,100866.84
2023-03-20T10:34:43.239Z,100855.66
2023-03-20T10:38:19.232Z,100854.09
2023-03-20T10:41:48.260Z,100872.16
2023-03-20T10:45:13.831Z,100862.41
2023-03-20T10:48:45.484Z,100866.97
2023-03-20T10:52:10.328Z,100867.69
2023-03-20T10:55:42.889Z,100869.22
2023-03-20T10:59:04.825Z,100856.63
2023-03-20T11:02:18.646Z,100896.25
2023-03-20T11:05:41.520Z,100847.97
2023-03-20T11:12:20.249Z,100845.38
2023-03-20T11:15:40.276Z,100850.03
2023-03-20T11:19:06.664Z,100835.69
2023-03-20T11:22:41.191Z,100837.44
2023-03-20T11:25:57.828Z,100839.81
2023-03-20T11:32:54.971Z,100834.16
2023-03-20T11:36:17.159Z,100833.22
2023-03-20T11:39:28.521Z,100836.81
2023-03-20T11:42:55.050Z,100842.34
2023-03-20T11:46:34.284Z,100838.44
2023-03-20T11:50:24.079Z,100833.63
2023-03-20T11:54:34.585Z,100826.22
2023-03-20T11:58:30.269Z,100820.84
2023-03-20T12:01:47.220Z,100818.91
2023-03-20T12:04:59.826Z,100820.63
2023-03-20T12:08:24.732Z,100820.63
2023-03-20T12:11:52.437Z,100813.78
2023-03-20T12:15:32.159Z,100807.63
2023-03-20T12:18:49.704Z,100807.16
2023-03-20T12:25:58.687Z,100802.66
2023-03-20T12:29:15.129Z,100812.88
2023-03-20T12:32:31.633Z,100809.50
2023-03-20T12:35:57.285Z,100798.31
2023-03-20T12:39:42.402Z,100794.22
2023-03-20T12:43:10.327Z,100800.44
2023-03-20T12:46:50.417Z,100790.88
2023-03-20T12:50:22.463Z,100786.63
2023-03-20T12:53:43.303Z,100789.41
2023-03-20T12:57:15.155Z,100791.97
2023-03-20T13:01:05.608Z,100788.03
2023-03-20T13:04:44.591Z,100788.25
2023-03-20T13:08:17.813Z,100787.47
2023-03-20T13:18:01.786Z,100773.94
2023-03-20T13:30:18.136Z,100783.81
2023-03-20T14:02:25.510Z,100763.13
2023-03-20T14:08:50.172Z,100746.09
2023-03-20T14:12:08.685Z,100758.41
2023-03-20T14:15:38.220Z,100756.19
2023-03-20T14:22:56.489Z,100742.13
2023-03-20T14:26:29.251Z,100740.78
2023-03-20T14:48:18.670Z,100737.06
